sensor_id;sensor_type;location;lat;lon;timestamp;P1;durP1;ratioP1;P2;durP2;ratioP2
65053;SDS011;51639;47.828;35.038;2023-02-28T00:14:12;4.37;;;2.63;;
65053;SDS011;51639;47.828;35.038;2023-02-28T00:29:13;7.83;;;2.37;;
65053;SDS011;51639;47.828;35.038;2023-02-28T00:44:17;3.97;;;2.60;;
65053;SDS011;51639;47.828;35.038;2023-02-28T00:59:18;4.13;;;2.90;;
65053;SDS011;51639;47.828;35.038;2023-02-28T01:14:20;4.53;;;2.80;;
65053;SDS011;51639;47.828;35.038;2023-02-28T01:29:22;4.90;;;3.10;;
65053;SDS011;51639;47.828;35.038;2023-02-28T02:00:10;9.77;;;4.87;;
65053;SDS011;51639;47.828;35.038;2023-02-28T02:15:16;12.83;;;5.37;;
65053;SDS011;51639;47.828;35.038;2023-02-28T02:45:54;15.47;;;8.03;;
65053;SDS011;51639;47.828;35.038;2023-02-28T03:01:01;19.57;;;7.70;;
65053;SDS011;51639;47.828;35.038;2023-02-28T03:16:09;26.00;;;10.60;;
65053;SDS011;51639;47.828;35.038;2023-02-28T03:31:19;28.03;;;12.00;;
65053;SDS011;51639;47.828;35.038;2023-02-28T03:46:28;28.67;;;11.00;;
65053;SDS011;51639;47.828;35.038;2023-02-28T04:01:39;31.83;;;11.23;;
65053;SDS011;51639;47.828;35.038;2023-02-28T04:16:44;35.87;;;13.63;;
65053;SDS011;51639;47.828;35.038;2023-02-28T04:31:46;30.07;;;12.70;;
65053;SDS011;51639;47.828;35.038;2023-02-28T04:46:49;36.57;;;13.87;;
65053;SDS011;51639;47.828;35.038;2023-02-28T05:01:51;33.90;;;13.27;;
65053;SDS011;51639;47.828;35.038;2023-02-28T05:16:53;33.67;;;14.03;;
65053;SDS011;51639;47.828;35.038;2023-02-28T05:31:55;30.13;;;12.73;;
65053;SDS011;51639;47.828;35.038;2023-02-28T05:46:59;38.90;;;15.60;;
65053;SDS011;51639;47.828;35.038;2023-02-28T06:02:01;33.33;;;13.23;;
65053;SDS011;51639;47.828;35.038;2023-02-28T06:17:03;36.37;;;14.90;;
65053;SDS011;51639;47.828;35.038;2023-02-28T06:32:05;39.03;;;15.23;;
65053;SDS011;51639;47.828;35.038;2023-02-28T06:47:08;37.97;;;16.17;;
65053;SDS011;51639;47.828;35.038;2023-02-28T07:02:10;36.17;;;14.13;;
65053;SDS011;51639;47.828;35.038;2023-02-28T07:17:12;32.03;;;14.23;;
65053;SDS011;51639;47.828;35.038;2023-02-28T07:32:14;35.27;;;13.67;;
65053;SDS011;51639;47.828;35.038;2023-02-28T07:47:16;26.80;;;12.67;;
65053;SDS011;51639;47.828;35.038;2023-02-28T08:02:18;24.17;;;10.50;;
65053;SDS011;51639;47.828;35.038;2023-02-28T08:17:20;21.30;;;9.50;;
65053;SDS011;51639;47.828;35.038;2023-02-28T08:32:22;20.13;;;7.97;;
65053;SDS011;51639;47.828;35.038;2023-02-28T08:47:30;12.23;;;6.13;;
65053;SDS011;51639;47.828;35.038;2023-02-28T09:02:32;15.27;;;7.47;;
65053;SDS011;51639;47.828;35.038;2023-02-28T09:17:33;14.10;;;6.27;;
65053;SDS011;51639;47.828;35.038;2023-02-28T09:32:35;11.20;;;5.97;;
65053;SDS011;51639;47.828;35.038;2023-02-28T09:47:39;13.10;;;6.00;;
65053;SDS011;51639;47.828;35.038;2023-02-28T10:03:04;23.23;;;9.60;;
65053;SDS011;51639;47.828;35.038;2023-02-28T10:18:20;30.27;;;13.13;;
65053;SDS011;51639;47.828;35.038;2023-02-28T10:33:30;34.83;;;12.60;;
65053;SDS011;51639;47.828;35.038;2023-02-28T10:48:41;33.80;;;15.73;;
65053;SDS011;51639;47.828;35.038;2023-02-28T11:03:46;41.80;;;17.17;;
65053;SDS011;51639;47.828;35.038;2023-02-28T11:33:56;17.60;;;8.73;;
65053;SDS011;51639;47.828;35.038;2023-02-28T12:04:50;13.50;;;6.80;;
65053;SDS011;51639;47.828;35.038;2023-02-28T12:35:25;13.50;;;6.07;;
65053;SDS011;51639;47.828;35.038;2023-02-28T12:50:57;9.50;;;5.60;;
65053;SDS011;51639;47.828;35.038;2023-02-28T13:21:09;9.60;;;5.67;;
65053;SDS011;51639;47.828;35.038;2023-02-28T13:36:26;8.27;;;4.97;;
65053;SDS011;51639;47.828;35.038;2023-02-28T13:51:38;11.40;;;5.57;;
65053;SDS011;51639;47.828;35.038;2023-02-28T14:06:47;8.87;;;5.10;;
65053;SDS011;51639;47.828;35.038;2023-02-28T14:37:03;16.83;;;6.87;;
65053;SDS011;51639;47.828;35.038;2023-02-28T14:52:11;13.13;;;6.00;;
65053;SDS011;51639;47.828;35.038;2023-02-28T15:07:17;12.87;;;6.17;;
65053;SDS011;51639;47.828;35.038;2023-02-28T15:22:21;10.93;;;6.10;;
65053;SDS011;51639;47.828;35.038;2023-02-28T15:52:58;8.43;;;5.67;;
65053;SDS011;51639;47.828;35.038;2023-02-28T16:08:11;13.03;;;7.07;;
65053;SDS011;51639;47.828;35.038;2023-02-28T16:23:15;12.80;;;7.13;;
65053;SDS011;51639;47.828;35.038;2023-02-28T16:38:17;12.97;;;7.53;;
65053;SDS011;51639;47.828;35.038;2023-02-28T16:53:21;14.40;;;7.23;;
65053;SDS011;51639;47.828;35.038;2023-02-28T17:08:23;10.17;;;5.87;;
65053;SDS011;51639;47.828;35.038;2023-02-28T17:23:25;14.63;;;6.40;;
65053;SDS011;51639;47.828;35.038;2023-02-28T17:38:28;14.20;;;6.10;;
65053;SDS011;51639;47.828;35.038;2023-02-28T17:53:30;9.10;;;4.40;;
65053;SDS011;51639;47.828;35.038;2023-02-28T18:08:32;11.20;;;5.53;;
65053;SDS011;51639;47.828;35.038;2023-02-28T18:23:36;8.67;;;4.40;;
65053;SDS011;51639;47.828;35.038;2023-02-28T18:38:38;8.90;;;4.43;;
65053;SDS011;51639;47.828;35.038;2023-02-28T18:53:41;10.10;;;5.23;;
65053;SDS011;51639;47.828;35.038;2023-02-28T19:08:44;8.20;;;4.67;;
65053;SDS011;51639;47.828;35.038;2023-02-28T19:23:46;9.00;;;5.13;;
65053;SDS011;51639;47.828;35.038;2023-02-28T19:38:49;16.40;;;7.97;;
65053;SDS011;51639;47.828;35.038;2023-02-28T19:53:52;14.63;;;8.27;;
65053;SDS011;51639;47.828;35.038;2023-02-28T20:08:54;19.03;;;10.00;;
65053;SDS011;51639;47.828;35.038;2023-02-28T20:23:56;14.40;;;8.53;;
65053;SDS011;51639;47.828;35.038;2023-02-28T20:38:58;21.77;;;9.70;;
65053;SDS011;51639;47.828;35.038;2023-02-28T20:54:01;21.50;;;9.60;;
65053;SDS011;51639;47.828;35.038;2023-02-28T21:09:06;21.77;;;10.17;;
65053;SDS011;51639;47.828;35.038;2023-02-28T21:24:10;23.00;;;10.87;;
65053;SDS011;51639;47.828;35.038;2023-02-28T21:39:14;30.73;;;12.20;;
65053;SDS011;51639;47.828;35.038;2023-02-28T21:54:19;39.97;;;15.57;;
65053;SDS011;51639;47.828;35.038;2023-02-28T22:09:21;42.17;;;15.80;;
65053;SDS011;51639;47.828;35.038;2023-02-28T22:24:23;37.20;;;15.03;;
65053;SDS011;51639;47.828;35.038;2023-02-28T22:39:25;28.33;;;12.90;;
65053;SDS011;51639;47.828;35.038;2023-02-28T22:54:27;26.40;;;14.03;;
65053;SDS011;51639;47.828;35.038;2023-02-28T23:09:29;28.60;;;11.73;;
65053;SDS011;51639;47.828;35.038;2023-02-28T23:24:32;27.53;;;11.03;;
65053;SDS011;51639;47.828;35.038;2023-02-28T23:39:35;25.97;;;10.60;;
65053;SDS011;51639;47.828;35.038;2023-02-28T23:54:38;28.57;;;12.87;;
